createdAt,value
2022-10-19T00:01:22.756Z,87.97
2022-10-19T00:03:54.242Z,88.34
2022-10-19T00:06:28.518Z,87.79
2022-10-19T00:08:59.332Z,87.25
2022-10-19T00:11:28.733Z,87.36
2022-10-19T00:13:58.252Z,87.69
2022-10-19T00:16:30.450Z,87.39
2022-10-19T00:19:00.648Z,86.99
2022-10-19T00:21:29.353Z,87.67
2022-10-19T00:23:57.688Z,87.70
2022-10-19T00:26:26.222Z,87.52
2022-10-19T00:28:55.873Z,87.77
2022-10-19T00:31:25.395Z,88.33
2022-10-19T00:33:56.599Z,88.54
2022-10-19T00:36:27.767Z,88.44
2022-10-19T00:38:56.469Z,88.45
2022-10-19T00:41:26.483Z,88.20
2022-10-19T00:44:12.034Z,89.33
2022-10-19T00:46:43.717Z,90.83
2022-10-19T00:49:25.374Z,89.91
2022-10-19T00:52:01.647Z,89.70
2022-10-19T00:54:34.900Z,89.13
2022-10-19T00:57:04.238Z,89.93
2022-10-19T00:59:33.298Z,90.30
2022-10-19T01:02:03.559Z,89.85
2022-10-19T01:04:35.064Z,89.50
2022-10-19T01:07:05.404Z,89.16
2022-10-19T01:09:34.970Z,89.95
2022-10-19T01:12:27.914Z,90.15
2022-10-19T01:15:31.305Z,89.67
2022-10-19T01:18:34.886Z,90.50
2022-10-19T01:21:29.932Z,89.99
2022-10-19T01:24:01.112Z,90.56
2022-10-19T01:27:00.521Z,91.17
2022-10-19T01:30:14.034Z,90.75
2022-10-19T01:32:57.857Z,90.69
2022-10-19T01:35:53.439Z,91.45
2022-10-19T01:39:03.295Z,90.95
2022-10-19T01:41:54.364Z,90.50
2022-10-19T01:44:50.583Z,90.76
2022-10-19T01:47:41.512Z,90.95
2022-10-19T01:50:24.729Z,90.86
2022-10-19T01:52:55.555Z,91.74
2022-10-19T01:55:26.424Z,92.26
2022-10-19T01:58:00.626Z,91.89
2022-10-19T02:00:31.322Z,91.76
2022-10-19T02:03:01.137Z,91.38
2022-10-19T02:05:33.104Z,91.65
2022-10-19T02:08:10.863Z,91.39
2022-10-19T02:10:42.328Z,91.60
2022-10-19T02:13:13.916Z,91.88
2022-10-19T02:15:46.605Z,92.24
2022-10-19T02:18:21.308Z,93.28
2022-10-19T02:20:49.853Z,92.93
2022-10-19T02:23:21.495Z,92.63
2022-10-19T02:25:49.957Z,92.77
2022-10-19T02:28:18.665Z,92.58
2022-10-19T02:30:47.600Z,92.73
2022-10-19T02:33:16.392Z,92.46
2022-10-19T02:35:44.974Z,92.31
2022-10-19T02:38:17.021Z,91.59
2022-10-19T02:40:52.256Z,93.53
2022-10-19T02:43:23.195Z,92.93
2022-10-19T02:46:00.384Z,91.96
2022-10-19T02:48:31.936Z,92.81
2022-10-19T02:51:00.522Z,94.10
2022-10-19T02:53:29.340Z,96.17
2022-10-19T02:55:57.377Z,96.35
2022-10-19T02:58:26.067Z,96.13
2022-10-19T03:00:54.971Z,96.54
2022-10-19T03:03:22.990Z,92.39
2022-10-19T03:05:52.273Z,88.51
2022-10-19T03:08:20.533Z,85.67
2022-10-19T03:10:48.773Z,83.68
2022-10-19T03:13:19.882Z,83.24
2022-10-19T03:15:48.190Z,82.14
2022-10-19T03:18:16.626Z,81.00
2022-10-19T03:20:45.053Z,79.96
2022-10-19T03:23:13.241Z,79.75
2022-10-19T03:25:41.622Z,79.84
2022-10-19T03:28:09.560Z,79.67
2022-10-19T03:30:38.119Z,79.79
2022-10-19T03:33:06.427Z,78.34
2022-10-19T03:35:34.503Z,78.38
2022-10-19T03:38:02.715Z,78.03
2022-10-19T03:40:31.382Z,79.07
2022-10-19T03:42:59.325Z,79.56
2022-10-19T03:45:27.736Z,79.60
2022-10-19T03:47:56.137Z,79.66
2022-10-19T03:50:24.970Z,80.29
2022-10-19T03:52:55.004Z,81.72
2022-10-19T03:55:23.379Z,81.71
2022-10-19T03:57:51.768Z,82.04
2022-10-19T04:00:20.355Z,82.92
2022-10-19T04:02:48.678Z,83.93
2022-10-19T04:05:16.793Z,83.75
2022-10-19T04:07:45.104Z,85.33
2022-10-19T04:10:17.498Z,85.75
2022-10-19T04:12:46.406Z,86.38
2022-10-19T04:15:17.021Z,85.80
2022-10-19T04:17:48.543Z,84.39
2022-10-19T04:20:21.332Z,83.92
2022-10-19T04:22:49.444Z,82.82
2022-10-19T04:25:17.889Z,83.06
2022-10-19T04:27:46.263Z,82.69
2022-10-19T04:30:14.420Z,82.89
2022-10-19T04:32:42.759Z,83.41
2022-10-19T04:35:10.845Z,83.51
2022-10-19T04:37:38.995Z,85.32
2022-10-19T04:40:12.829Z,85.78
2022-10-19T04:42:43.632Z,86.98
2022-10-19T04:45:11.939Z,87.79
2022-10-19T04:47:39.956Z,88.47
2022-10-19T04:50:09.892Z,89.07
2022-10-19T04:52:39.419Z,87.75
2022-10-19T04:55:07.798Z,86.10
2022-10-19T04:57:36.632Z,84.95
2022-10-19T05:00:06.146Z,84.12
2022-10-19T05:02:34.173Z,83.82
2022-10-19T05:05:02.537Z,83.50
2022-10-19T05:07:31.123Z,83.80
2022-10-19T05:10:00.775Z,84.38
2022-10-19T05:12:29.073Z,85.06
2022-10-19T05:14:57.397Z,85.06
2022-10-19T05:17:25.530Z,85.47
2022-10-19T05:19:54.224Z,85.38
2022-10-19T05:22:22.657Z,85.78
2022-10-19T05:24:54.492Z,85.97
2022-10-19T05:27:25.918Z,86.76
2022-10-19T05:29:57.015Z,87.00
2022-10-19T05:32:27.025Z,87.11
2022-10-19T05:34:55.257Z,87.94
2022-10-19T05:37:23.300Z,88.09
2022-10-19T05:39:54.818Z,88.70
2022-10-19T05:42:24.867Z,89.05
2022-10-19T05:44:53.188Z,89.20
2022-10-19T05:47:21.353Z,88.96
2022-10-19T05:49:50.043Z,89.14
2022-10-19T05:52:18.520Z,88.75
2022-10-19T05:54:47.261Z,89.03
2022-10-19T05:57:15.443Z,89.31
2022-10-19T05:59:52.579Z,89.12
2022-10-19T06:02:20.987Z,88.59
2022-10-19T06:04:49.356Z,87.28
2022-10-19T06:07:17.584Z,86.93
2022-10-19T06:09:46.611Z,87.28
2022-10-19T06:12:16.316Z,85.94
2022-10-19T06:17:18.461Z,81.58
2022-10-19T06:19:47.508Z,80.44
2022-10-19T06:22:15.532Z,80.13
2022-10-19T06:24:44.139Z,79.39
2022-10-19T06:27:12.382Z,79.22
2022-10-19T06:29:41.019Z,77.63
2022-10-19T06:32:09.424Z,77.37
2022-10-19T06:34:37.600Z,76.77
2022-10-19T06:37:05.754Z,77.28
2022-10-19T06:39:34.678Z,77.61
2022-10-19T06:42:02.891Z,76.67
2022-10-19T06:44:30.979Z,76.92
2022-10-19T06:46:59.452Z,75.05
2022-10-19T06:49:27.948Z,75.21
2022-10-19T06:51:56.210Z,74.49
2022-10-19T06:54:25.635Z,73.77
2022-10-19T06:56:54.104Z,74.50
2022-10-19T06:59:22.620Z,74.56
2022-10-19T07:01:50.897Z,74.51
2022-10-19T07:04:19.051Z,73.03
2022-10-19T07:06:47.388Z,73.06
2022-10-19T07:09:16.317Z,73.57
2022-10-19T07:11:46.064Z,72.51
2022-10-19T07:14:14.869Z,72.11
2022-10-19T07:16:43.223Z,72.82
2022-10-19T07:19:11.911Z,72.30
2022-10-19T07:21:41.789Z,71.25
2022-10-19T07:24:10.416Z,69.83
2022-10-19T07:26:38.589Z,70.89
2022-10-19T07:29:06.680Z,70.30
2022-10-19T07:31:35.643Z,70.07
2022-10-19T07:34:05.002Z,70.03
2022-10-19T07:36:35.973Z,69.27
2022-10-19T07:39:06.521Z,68.26
2022-10-19T07:41:34.949Z,67.94
2022-10-19T07:44:04.003Z,67.20
2022-10-19T07:46:34.019Z,67.47
2022-10-19T07:49:02.996Z,66.91
2022-10-19T07:51:31.118Z,65.82
2022-10-19T07:53:59.794Z,66.67
2022-10-19T07:56:28.593Z,64.62
2022-10-19T07:58:58.678Z,64.07
2022-10-19T08:01:32.605Z,64.84
2022-10-19T08:06:50.191Z,62.31
2022-10-19T08:09:47.272Z,59.86
2022-10-19T08:12:07.273Z,60.39
2022-10-19T08:14:35.716Z,57.49
2022-10-19T08:17:03.759Z,58.22
2022-10-19T08:19:34.044Z,57.02
2022-10-19T08:22:02.465Z,56.32
2022-10-19T08:24:30.536Z,54.57
2022-10-19T08:26:59.168Z,53.17
2022-10-19T08:29:30.689Z,53.71
2022-10-19T08:32:00.307Z,53.23
2022-10-19T08:34:28.676Z,53.20
2022-10-19T08:36:56.718Z,51.93
2022-10-19T08:39:25.126Z,51.20
2022-10-19T08:42:03.651Z,51.64
2022-10-19T08:44:34.943Z,51.27
2022-10-19T08:47:27.556Z,52.91
2022-10-19T08:49:58.799Z,51.41
2022-10-19T08:52:34.099Z,49.86
2022-10-19T08:55:13.995Z,49.38
2022-10-19T08:58:10.339Z,49.12
2022-10-19T09:01:07.507Z,49.73
2022-10-19T09:04:03.209Z,50.64
2022-10-19T09:06:45.048Z,50.34
2022-10-19T09:09:15.023Z,48.93
2022-10-19T09:11:47.503Z,50.24
2022-10-19T09:14:22.282Z,47.44
2022-10-19T09:16:50.353Z,47.24
2022-10-19T09:19:25.940Z,50.38
2022-10-19T09:22:03.902Z,48.15
2022-10-19T09:24:37.458Z,47.74
2022-10-19T09:27:10.899Z,46.09
2022-10-19T09:30:03.848Z,45.35
2022-10-19T09:32:36.294Z,45.86
2022-10-19T09:35:13.917Z,45.83
2022-10-19T09:37:46.902Z,45.25
2022-10-19T09:40:35.156Z,46.01
2022-10-19T09:43:19.687Z,48.66
2022-10-19T09:46:19.834Z,47.39
2022-10-19T09:48:53.617Z,47.58
2022-10-19T09:51:23.757Z,46.59
2022-10-19T09:53:54.660Z,48.44
2022-10-19T09:56:27.884Z,48.46
2022-10-19T09:58:58.698Z,48.17
2022-10-19T10:01:41.733Z,48.26
2022-10-19T10:04:16.819Z,48.23
2022-10-19T10:06:49.961Z,47.39
2022-10-19T10:09:22.654Z,45.85
2022-10-19T10:11:52.007Z,46.26
2022-10-19T10:14:25.189Z,45.24
2022-10-19T10:17:17.647Z,46.06
2022-10-19T10:20:05.916Z,43.95
2022-10-19T10:22:37.227Z,45.17
2022-10-19T10:25:17.011Z,44.25
2022-10-19T10:27:59.390Z,43.40
2022-10-19T10:30:35.114Z,45.45
2022-10-19T10:33:13.274Z,43.33
2022-10-19T10:35:57.931Z,41.96
2022-10-19T10:38:30.862Z,40.27
2022-10-19T10:41:29.125Z,43.10
2022-10-19T10:44:04.939Z,42.10
2022-10-19T10:46:43.723Z,44.66
2022-10-19T10:49:24.471Z,43.79
2022-10-19T10:51:57.267Z,43.98
2022-10-19T10:54:26.531Z,43.23
2022-10-19T10:57:18.762Z,43.26
2022-10-19T11:00:14.118Z,42.26
2022-10-19T11:02:52.368Z,42.04
2022-10-19T11:05:54.459Z,41.21
2022-10-19T11:08:35.448Z,38.16
2022-10-19T11:11:46.670Z,39.56
2022-10-19T11:14:41.569Z,39.57
2022-10-19T11:17:21.070Z,40.75
2022-10-19T11:19:52.232Z,42.82
2022-10-19T11:22:59.354Z,44.14
2022-10-19T11:25:46.207Z,42.65
2022-10-19T11:28:23.335Z,44.08
2022-10-19T11:31:25.083Z,43.24
2022-10-19T11:34:02.581Z,45.18
2022-10-19T11:37:11.923Z,43.42
2022-10-19T11:39:52.136Z,44.27
2022-10-19T11:42:38.625Z,45.00
2022-10-19T11:45:34.571Z,47.34
2022-10-19T11:48:12.155Z,46.92
2022-10-19T11:50:58.883Z,46.61
2022-10-19T11:54:08.965Z,47.54
2022-10-19T11:57:03.600Z,46.03
2022-10-19T11:59:36.447Z,46.07
2022-10-19T12:02:32.741Z,45.66
2022-10-19T12:05:28.095Z,46.23
2022-10-19T12:08:21.239Z,45.95
2022-10-19T12:11:27.796Z,47.55
2022-10-19T12:14:03.778Z,47.55
2022-10-19T12:16:42.951Z,46.01
2022-10-19T12:19:20.454Z,47.14
2022-10-19T12:21:50.820Z,46.11
2022-10-19T12:24:25.243Z,45.65
2022-10-19T12:26:54.478Z,46.06
2022-10-19T12:29:36.513Z,45.53
2022-10-19T12:32:07.420Z,45.18
2022-10-19T12:34:54.565Z,46.75
2022-10-19T12:37:46.187Z,45.32
2022-10-19T12:40:26.552Z,45.16
2022-10-19T12:43:08.967Z,45.29
2022-10-19T12:45:44.024Z,45.41
2022-10-19T12:48:19.289Z,46.62
2022-10-19T12:50:52.471Z,47.04
2022-10-19T12:53:45.409Z,45.49
2022-10-19T12:56:19.595Z,46.68
2022-10-19T12:59:01.534Z,46.26
2022-10-19T13:01:44.341Z,45.57
2022-10-19T13:04:16.266Z,46.37
2022-10-19T13:06:49.486Z,46.28
2022-10-19T13:09:27.809Z,45.89
2022-10-19T13:12:25.653Z,46.31
2022-10-19T13:14:54.653Z,44.46
2022-10-19T13:17:37.726Z,45.36
2022-10-19T13:20:14.820Z,44.49
2022-10-19T13:23:03.623Z,46.12
2022-10-19T13:25:39.770Z,44.10
2022-10-19T13:28:07.908Z,43.98
2022-10-19T13:30:42.082Z,44.32
2022-10-19T13:33:44.999Z,45.53
2022-10-19T13:36:14.056Z,47.00
2022-10-19T13:38:43.778Z,45.61
2022-10-19T13:41:27.783Z,44.58
2022-10-19T13:44:17.010Z,45.43
2022-10-19T13:47:00.206Z,45.72
2022-10-19T13:49:38.055Z,45.76
2022-10-19T13:52:21.539Z,45.98
2022-10-19T13:55:14.841Z,46.30
2022-10-19T13:58:00.441Z,47.07
2022-10-19T14:00:56.218Z,46.79
2022-10-19T14:03:50.819Z,46.58
2022-10-19T14:06:43.514Z,47.10
2022-10-19T14:09:43.212Z,47.37
2022-10-19T14:12:24.307Z,48.28
2022-10-19T14:14:56.110Z,48.57
2022-10-19T14:17:28.646Z,48.62
2022-10-19T14:20:00.113Z,49.59
2022-10-19T14:22:34.057Z,50.50
2022-10-19T14:25:02.552Z,50.44
2022-10-19T14:27:31.483Z,49.67
2022-10-19T14:30:04.501Z,49.85
2022-10-19T14:32:34.470Z,50.60
2022-10-19T14:35:22.436Z,49.44
2022-10-19T14:37:51.200Z,50.03
2022-10-19T14:40:37.688Z,47.71
2022-10-19T14:43:27.344Z,45.33
2022-10-19T14:46:04.911Z,45.56
2022-10-19T14:48:35.109Z,47.59
2022-10-19T14:51:10.178Z,48.21
2022-10-19T14:53:54.877Z,47.08
2022-10-19T14:56:33.020Z,47.52
2022-10-19T14:59:37.167Z,48.91
2022-10-19T15:02:32.854Z,48.25
2022-10-19T15:05:04.581Z,48.27
2022-10-19T15:07:40.171Z,49.45
2022-10-19T15:10:19.412Z,49.67
2022-10-19T15:12:50.437Z,49.29
2022-10-19T15:15:18.866Z,50.25
2022-10-19T15:17:53.783Z,50.94
2022-10-19T15:20:43.756Z,50.48
2022-10-19T15:23:30.552Z,51.58
2022-10-19T15:26:00.793Z,50.59
2022-10-19T15:28:37.462Z,50.93
2022-10-19T15:31:25.514Z,50.14
2022-10-19T15:33:56.607Z,50.13
2022-10-19T15:36:26.697Z,51.50
2022-10-19T15:39:06.198Z,52.54
2022-10-19T15:41:46.477Z,53.09
2022-10-19T15:44:40.940Z,52.99
2022-10-19T15:47:15.949Z,53.93
2022-10-19T15:49:45.864Z,53.58
2022-10-19T15:52:19.334Z,55.13
2022-10-19T15:54:49.052Z,52.71
2022-10-19T15:57:33.374Z,51.94
2022-10-19T16:00:12.883Z,52.88
2022-10-19T16:02:41.613Z,52.61
2022-10-19T16:05:10.169Z,53.00
2022-10-19T16:07:40.378Z,53.15
2022-10-19T16:10:17.926Z,52.82
2022-10-19T16:12:46.288Z,53.53
2022-10-19T16:15:23.177Z,54.20
2022-10-19T16:17:55.237Z,53.39
2022-10-19T16:20:25.962Z,53.78
2022-10-19T16:22:54.672Z,53.37
2022-10-19T16:25:22.940Z,53.98
2022-10-19T16:27:51.623Z,53.40
2022-10-19T16:30:20.139Z,53.08
2022-10-19T16:32:49.611Z,53.62
2022-10-19T16:35:18.173Z,53.47
2022-10-19T16:37:46.364Z,53.49
2022-10-19T16:40:15.822Z,53.59
2022-10-19T16:42:44.444Z,53.69
2022-10-19T16:45:12.987Z,53.98
2022-10-19T16:47:41.333Z,53.84
2022-10-19T16:50:13.652Z,54.11
2022-10-19T16:52:42.024Z,54.65
2022-10-19T16:55:10.605Z,54.58
2022-10-19T16:57:39.071Z,54.59
2022-10-19T17:00:09.672Z,54.87
2022-10-19T17:02:41.850Z,55.14
2022-10-19T17:05:12.464Z,54.94
2022-10-19T17:07:41.273Z,55.04
2022-10-19T17:10:10.035Z,55.50
2022-10-19T17:12:42.920Z,54.79
2022-10-19T17:18:03.259Z,55.14
2022-10-19T17:20:33.476Z,55.31
2022-10-19T17:23:01.606Z,55.43
2022-10-19T17:25:30.182Z,56.39
2022-10-19T17:27:58.772Z,56.81
2022-10-19T17:30:29.411Z,56.99
2022-10-19T17:32:57.996Z,57.50
2022-10-19T17:35:26.716Z,57.74
2022-10-19T17:37:55.189Z,57.93
2022-10-19T17:40:23.787Z,58.40
2022-10-19T17:42:52.400Z,58.04
2022-10-19T17:45:20.779Z,58.93
2022-10-19T17:47:49.289Z,59.00
2022-10-19T17:50:18.228Z,59.94
2022-10-19T17:52:46.857Z,60.56
2022-10-19T17:55:15.362Z,60.99
2022-10-19T17:57:44.248Z,60.66
2022-10-19T18:00:13.498Z,60.79
2022-10-19T18:02:44.906Z,61.05
2022-10-19T18:05:13.126Z,61.69
2022-10-19T18:07:42.779Z,61.97
2022-10-19T18:10:11.620Z,62.80
2022-10-19T18:12:40.532Z,63.18
2022-10-19T18:15:09.206Z,63.46
2022-10-19T18:17:39.892Z,63.28
2022-10-19T18:20:09.611Z,63.63
2022-10-19T18:22:38.376Z,63.78
2022-10-19T18:25:08.757Z,63.88
2022-10-19T18:27:37.435Z,64.22
2022-10-19T18:30:10.218Z,64.01
2022-10-19T18:32:38.704Z,64.24
2022-10-19T18:35:09.026Z,63.60
2022-10-19T18:37:37.609Z,63.54
2022-10-19T18:40:08.036Z,63.87
2022-10-19T18:42:36.654Z,63.86
2022-10-19T18:45:05.691Z,63.51
2022-10-19T18:47:34.095Z,63.35
2022-10-19T18:50:03.534Z,64.06
2022-10-19T18:52:36.530Z,62.80
2022-10-19T18:55:08.236Z,62.28
2022-10-19T18:57:38.167Z,62.76
2022-10-19T19:00:08.000Z,61.08
2022-10-19T19:02:46.476Z,60.74
2022-10-19T19:05:15.955Z,62.08
2022-10-19T19:07:44.220Z,62.55
2022-10-19T19:10:14.503Z,62.77
2022-10-19T19:12:45.005Z,63.33
2022-10-19T19:15:13.153Z,63.46
2022-10-19T19:17:41.518Z,64.01
2022-10-19T19:20:12.545Z,63.80
2022-10-19T19:22:41.639Z,64.48
2022-10-19T19:25:11.570Z,65.06
2022-10-19T19:27:39.919Z,65.59
2022-10-19T19:30:10.786Z,65.28
2022-10-19T19:32:39.148Z,65.41
2022-10-19T19:35:07.714Z,64.74
2022-10-19T19:37:36.620Z,65.05
2022-10-19T19:40:07.787Z,65.14
2022-10-19T19:42:36.871Z,65.37
2022-10-19T19:45:05.646Z,64.65
2022-10-19T19:47:34.750Z,64.81
2022-10-19T19:50:03.893Z,64.15
2022-10-19T19:52:34.884Z,64.21
2022-10-19T19:55:07.107Z,64.95
2022-10-19T19:57:36.099Z,63.91
2022-10-19T20:00:11.126Z,62.50
2022-10-19T20:02:39.699Z,61.92
2022-10-19T20:05:08.632Z,62.15
2022-10-19T20:07:37.167Z,61.55
2022-10-19T20:10:07.852Z,60.43
2022-10-19T20:12:38.847Z,59.31
2022-10-19T20:15:07.371Z,60.15
2022-10-19T20:17:36.394Z,59.19
2022-10-19T20:20:13.339Z,59.70
2022-10-19T20:22:46.544Z,58.84
2022-10-19T20:25:15.295Z,59.25
2022-10-19T20:27:43.932Z,58.85
2022-10-19T20:30:18.552Z,59.01
2022-10-19T20:32:48.075Z,61.14
2022-10-19T20:35:17.209Z,63.10
2022-10-19T20:37:49.899Z,63.95
2022-10-19T20:40:20.269Z,64.23
2022-10-19T20:42:48.617Z,63.54
2022-10-19T20:45:16.641Z,63.71
2022-10-19T20:47:45.568Z,63.09
2022-10-19T20:50:21.840Z,62.78
2022-10-19T20:52:50.473Z,63.69
2022-10-19T20:55:20.519Z,64.34
2022-10-19T20:57:48.855Z,64.39
2022-10-19T21:00:18.614Z,64.95
2022-10-19T21:02:47.166Z,64.84
2022-10-19T21:05:15.357Z,64.33
2022-10-19T21:07:43.725Z,65.12
2022-10-19T21:10:12.045Z,64.29
2022-10-19T21:12:40.056Z,64.08
2022-10-19T21:15:08.782Z,64.39
2022-10-19T21:17:41.481Z,63.51
2022-10-19T21:20:10.435Z,64.35
2022-10-19T21:22:40.191Z,63.93
2022-10-19T21:25:09.477Z,64.86
2022-10-19T21:27:38.197Z,64.47
2022-10-19T21:30:10.444Z,65.08
2022-10-19T21:32:38.945Z,65.97
2022-10-19T21:35:07.342Z,65.72
2022-10-19T21:37:35.615Z,66.02
2022-10-19T21:40:06.593Z,65.57
2022-10-19T21:42:34.601Z,65.99
2022-10-19T21:45:18.375Z,66.74
2022-10-19T21:47:51.826Z,65.71
2022-10-19T21:50:22.007Z,65.22
2022-10-19T21:52:50.003Z,65.18
2022-10-19T21:55:18.431Z,63.47
2022-10-19T21:57:47.010Z,63.17
2022-10-19T22:00:17.062Z,62.96
2022-10-19T22:02:44.931Z,62.72
2022-10-19T22:05:13.408Z,62.11
2022-10-19T22:07:41.672Z,62.10
2022-10-19T22:10:10.490Z,62.97
2022-10-19T22:12:39.325Z,62.98
2022-10-19T22:15:07.769Z,62.71
2022-10-19T22:17:35.816Z,62.97
2022-10-19T22:20:06.610Z,63.77
2022-10-19T22:22:35.036Z,64.11
2022-10-19T22:25:04.148Z,65.19
2022-10-19T22:27:32.356Z,65.58
2022-10-19T22:30:01.991Z,63.72
2022-10-19T22:32:30.430Z,63.79
2022-10-19T22:34:58.826Z,63.83
2022-10-19T22:37:26.832Z,63.33
2022-10-19T22:39:56.199Z,64.18
2022-10-19T22:42:24.411Z,64.91
2022-10-19T22:44:52.487Z,65.12
2022-10-19T22:47:20.816Z,64.28
2022-10-19T22:49:49.974Z,63.98
2022-10-19T22:52:17.987Z,64.24
2022-10-19T22:54:46.350Z,64.81
2022-10-19T22:57:14.813Z,66.44
2022-10-19T22:59:42.959Z,66.40
2022-10-19T23:02:11.347Z,66.40
2022-10-19T23:04:39.561Z,67.02
2022-10-19T23:07:07.731Z,66.47
2022-10-19T23:09:36.699Z,67.76
2022-10-19T23:12:05.719Z,69.36
2022-10-19T23:14:33.793Z,68.84
2022-10-19T23:17:02.133Z,67.42
2022-10-19T23:19:30.498Z,67.69
2022-10-19T23:21:58.514Z,68.19
2022-10-19T23:24:26.835Z,68.12
2022-10-19T23:26:55.318Z,68.06
2022-10-19T23:29:23.776Z,68.22
2022-10-19T23:31:52.113Z,68.25
2022-10-19T23:34:20.963Z,68.21
2022-10-19T23:36:49.203Z,68.71
2022-10-19T23:39:18.235Z,69.08
2022-10-19T23:41:46.538Z,69.31
2022-10-19T23:44:14.803Z,69.23
2022-10-19T23:46:43.153Z,69.00
2022-10-19T23:49:11.336Z,68.56
2022-10-19T23:51:39.721Z,69.38
2022-10-19T23:54:08.257Z,69.01
2022-10-19T23:56:36.404Z,68.63
2022-10-19T23:59:07.735Z,67.77
